JNB weather

OR Tambo International Airport
Johannesburg, Gauteng, South Africa

Public forecast

Using degrees Celsius for public forecast. Weather courtesy of forecast.io.

Current aviation weather report (METAR) for OR Tambo International Airport

Retrieved 2019/10/16 03:30 UTC (0 seconds ago):

FAOR 160330Z 09006KT 4000 BR FEW010 11/10 Q1029 NOSIG

Closest aviation forecast (TAF) to OR Tambo International Airport

Retrieved 2019-10-16 00:00 UTC (3 hours ago):

TAF FAOR 152240Z 1600/1706 07009KT CAVOK TX27/1613Z TN10/1603Z PROB40 TEMPO 1600/1603 4000 BR BKN005 BECMG 1609/1611 VRB03KT BECMG 1615/1617 35012KT